Plank, Kentucky
Current Conditions -  °F | °C
As of 1:53 PM on Thursday 23 Oct 2014 (Local Time) from KLOZ Reporting Station
Clear Clear  
Wind Chill: 60°   Ceiling: Unl
Heat Index: 60°   Visibility: 10mi
Dew Point: 40°   Wind: 7mph
Humidity: 47%   Direction: 110°ESE
Pressure: 30.17"   Gusts: NA
Location:  37.1101°N, 83.7537°W
Report Text: KLOZ 231753Z AUTO 11006KT 10SM CLR 16/04 A3017 RMK AO2 SLP214 T01560044 10156 20089 58021
Loading
Personal Weather Stations






























Interactive Weather Map
Tropical Storm Tracking
New forecast layout! Learn more

10-Day Weather Forecast

Advertisements
Track Severe Weather on mobile